Flight Track Log - Related Links

Times and Time Zones

All times are in EDT time to prevent confusion due to time zone crossing. See the N3343S flight status page for this flight to view local times or setup timezone preferences in your user account.

Time Position Orientation Groundspeed Altitude Reporting Facility
EDT Latitude Longitude Course Direction KTS MPH feet Rate Location/Type
Sun 12:59:32 PM 31.0331 -84.7983 356° North 138 159 5,500  Level Jacksonville Center
Sun 01:00:32 PM 31.0728 -84.8014 356° North 138 159 5,500 50 Level Jacksonville Center
Sun 01:01:33 PM 31.1081 -84.8069 352° North 138 159 5,600 50 Climbing Jacksonville Center
Sun 01:02:32 PM 31.1456 -84.8128 352° North 138 159 5,600  Level Jacksonville Center
Sun 01:03:32 PM 31.1811 -84.8183 352° North 138 159 5,600  Level Jacksonville Center
Sun 01:04:32 PM 31.2206 -84.8239 353° North 133 153 5,600  Level Jacksonville Center
Sun 01:05:32 PM 31.2561 -84.8294 352° North 128 147 5,600 -50 Level Jacksonville Center
Sun 01:06:32 PM 31.2917 -84.8303 359° North 128 147 5,500  Descending Jacksonville Center
Sun 01:07:33 PM 31.3292 -84.8311 359° North 128 147 5,600  Climbing Jacksonville Center
Sun 01:08:32 PM 31.3644 -84.8367 352° North 123 142 5,500 -50 Descending Jacksonville Center
Sun 01:09:32 PM 31.4022 -84.8372 359° North 123 142 5,500  Level Jacksonville Center
Sun 01:10:33 PM 31.4356 -84.8381 359° North 123 142 5,500  Level Jacksonville Center
Sun 01:11:32 PM 31.4708 -84.8411 356° North 123 142 5,500 50 Level Jacksonville Center
Sun 01:12:32 PM 31.5106 -84.8469 353° North 123 142 5,600 50 Climbing Jacksonville Center
Sun 01:13:33 PM 31.5458 -84.8500 356° North 123 142 5,600  Level Jacksonville Center
Sun 01:14:32 PM 31.5833 -84.8558 352° North 123 142 5,600  Level Jacksonville Center
Sun 01:15:32 PM 31.6169 -84.8589 356° North 123 142 5,600  Level Jacksonville Center
Sun 01:16:32 PM 31.6522 -84.8622 355° North 123 142 5,600 -31 Level Jacksonville Center
Sun 01:18:45 PM 31.7333 -84.8833 348° North 132 152 5,500 -62 Descending Atlanta TRACON
Sun 01:19:45 PM 31.7667 -84.8833 360° North 132 152 5,400 -50 Descending Atlanta TRACON
Sun 01:20:45 PM 31.8167 -84.8833 360° North 129 148 5,400 -50 Level Atlanta TRACON
Sun 01:21:45 PM 31.8500 -84.8833 360° North 128 147 5,300 -100 Descending Atlanta TRACON
Sun 01:22:45 PM 31.8833 -84.8833 360° North 129 148 5,200 -150 Descending Atlanta TRACON
Sun 01:23:45 PM 31.9167 -84.8833 360° North 133 153 5,000 -250 Descending Atlanta TRACON
Sun 01:24:45 PM 31.9500 -84.9000 337° Northwest 129 148 4,700 -300 Descending Atlanta TRACON
Sun 01:25:45 PM 31.9833 -84.9000 360° North 125 144 4,400 -250 Descending Atlanta TRACON
Sun 01:26:45 PM 32.0167 -84.9167 337° Northwest 126 145 4,200 -250 Descending Atlanta TRACON
Sun 01:27:45 PM 32.0500 -84.9167 360° North 125 144 3,900 -350 Descending Atlanta TRACON
Sun 01:28:45 PM 32.0833 -84.9167 360° North 119 137 3,500 -300 Descending Atlanta TRACON
Sun 01:29:45 PM 32.1167 -84.9167 360° North 119 137 3,300 50 Descending Atlanta TRACON
Sun 01:30:45 PM 32.1500 -84.9167 360° North 115 132 3,600  Climbing Atlanta TRACON
Sun 01:31:51 PM 32.1833 -84.9333 337° Northwest 119 137 3,300 -143 Descending Atlanta TRACON
Sun 01:32:51 PM 32.2167 -84.9333 360° North 119 137 3,300 -105 Level Atlanta TRACON
Sun 01:33:45 PM 32.2500 -84.9333 360° North 125 144 3,100 -211 Descending Atlanta TRACON
Sun 01:34:45 PM 32.2833 -84.9500 337° Northwest 116 133 2,900 -95 Descending Atlanta TRACON
Sun 01:35:51 PM 32.3167 -84.9500 360° North 112 129 2,900  Level Atlanta TRACON
Sun 01:36:51 PM 32.3500 -84.9500 360° North 114 131 2,900  Level Atlanta TRACON
Sun 01:37:51 PM 32.3833 -84.9667 337° Northwest 115 132 2,900 -150 Level Atlanta TRACON
Sun 01:38:51 PM 32.4167 -84.9667 360° North 124 143 2,600 -450 Descending Atlanta TRACON
Sun 01:39:51 PM 32.4500 -84.9833 337° Northwest 110 127 2,000 -200 Descending Atlanta TRACON
Sun 01:40:51 PM 32.4667 -85.0000 320° Northwest 115 132 2,200 -100 Climbing Atlanta TRACON
Sun 01:41:51 PM 32.5000 -85.0000 360° North 109 125 1,800 -250 Descending Atlanta TRACON
Sun 01:42:51 PM 32.5333 -85.0000 360° North 99 114 1,700 -300 Descending Atlanta TRACON
Sun 01:43:51 PM 32.5333 -84.9833 90° East 78 90 1,200 -474 Descending Atlanta TRACON
Sun 01:44:45 PM 32.5333 -84.9500 90° East 74 85 800 -444 Descending Atlanta TRACON
Sun 01:46:00 PM 32.5163 -84.9389 North  Level Estimated
Sun 01:53:00 PM 32.5163 -84.9389 North  Level Estimated
Sun 01:54:00 PM 32.5163 -84.9389 North  Level Estimated

Login

Don't have an account? Register now (free) for customized features, flight alerts, and more!